createdAt,value
2023-03-11T00:03:49.393Z,16.58
2023-03-11T00:06:18.801Z,18.10
2023-03-11T00:08:47.395Z,18.02
2023-03-11T00:11:42.224Z,73.13
2023-03-11T00:14:10.972Z,19.33
2023-03-11T00:16:40.124Z,18.50
2023-03-11T00:19:10.966Z,18.75
2023-03-11T00:21:40.054Z,19.40
2023-03-11T00:24:08.778Z,20.55
2023-03-11T00:26:37.779Z,101.15
2023-03-11T00:29:06.333Z,24.00
2023-03-11T00:31:50.354Z,21.13
2023-03-11T00:34:19.493Z,30.92
2023-03-11T00:36:48.065Z,29.17
2023-03-11T00:39:20.014Z,18.33
2023-03-11T00:41:48.500Z,17.67
2023-03-11T00:44:19.124Z,17.77
2023-03-11T00:46:49.915Z,17.08
2023-03-11T00:49:21.108Z,16.63
2023-03-11T00:51:49.666Z,16.10
2023-03-11T00:54:18.776Z,17.30
2023-03-11T00:56:49.314Z,16.67
2023-03-11T00:59:20.102Z,16.25
2023-03-11T01:01:48.750Z,32.15
2023-03-11T01:04:19.317Z,19.95
2023-03-11T01:06:49.046Z,19.23
2023-03-11T01:09:17.960Z,37.10
2023-03-11T01:11:47.815Z,18.85
2023-03-11T01:14:18.796Z,58.30
2023-03-11T01:16:49.122Z,27.58
2023-03-11T01:19:18.252Z,24.98
2023-03-11T01:21:47.346Z,26.80
2023-03-11T01:24:16.354Z,16.73
2023-03-11T01:26:45.191Z,16.98
2023-03-11T01:29:16.427Z,14.68
2023-03-11T01:31:47.288Z,16.02
2023-03-11T01:34:17.708Z,15.70
2023-03-11T01:36:46.379Z,16.73
2023-03-11T01:39:15.189Z,34.05
2023-03-11T01:41:43.694Z,22.30
2023-03-11T01:44:14.133Z,21.15
2023-03-11T01:46:52.742Z,23.45
2023-03-11T01:49:26.230Z,38.53
2023-03-11T01:51:58.022Z,27.88
2023-03-11T01:54:36.984Z,31.75
2023-03-11T01:57:14.300Z,15.52
2023-03-11T01:59:50.384Z,14.27
2023-03-11T02:02:24.305Z,15.77
2023-03-11T02:04:57.134Z,17.15
2023-03-11T02:07:26.872Z,16.88
2023-03-11T02:09:56.582Z,16.73
2023-03-11T02:12:29.118Z,13.32
2023-03-11T02:15:00.838Z,14.52
2023-03-11T02:17:31.945Z,14.43
2023-03-11T02:20:41.076Z,14.75
2023-03-11T02:23:16.319Z,14.38
2023-03-11T02:26:04.875Z,12.50
2023-03-11T02:28:36.520Z,12.68
2023-03-11T02:33:37.874Z,11.38
2023-03-11T02:36:07.880Z,11.10
2023-03-11T02:38:36.952Z,11.05
2023-03-11T02:41:07.078Z,11.23
2023-03-11T02:43:44.596Z,11.48
2023-03-11T02:46:20.405Z,11.32
2023-03-11T02:48:53.036Z,11.98
2023-03-11T02:51:22.070Z,12.27
2023-03-11T02:53:56.633Z,13.77
2023-03-11T02:56:26.345Z,12.93
2023-03-11T02:58:55.886Z,13.63
2023-03-11T03:01:24.903Z,11.95
2023-03-11T03:03:53.742Z,12.20
2023-03-11T03:06:22.913Z,12.57
2023-03-11T03:08:54.517Z,14.80
2023-03-11T03:11:23.620Z,13.90
2023-03-11T03:13:52.051Z,13.00
2023-03-11T03:16:21.096Z,14.13
2023-03-11T03:18:50.324Z,12.82
2023-03-11T03:21:44.674Z,14.75
2023-03-11T03:24:13.940Z,25.77
2023-03-11T03:26:43.308Z,15.43
2023-03-11T03:29:13.198Z,42.72
2023-03-11T03:31:42.259Z,42.88
2023-03-11T03:34:11.274Z,35.55
2023-03-11T03:36:40.281Z,35.78
2023-03-11T03:39:08.921Z,19.75
2023-03-11T03:41:39.690Z,19.02
2023-03-11T03:44:09.785Z,17.65
2023-03-11T03:46:40.076Z,16.48
2023-03-11T03:49:11.133Z,18.70
2023-03-11T03:51:40.905Z,18.92
2023-03-11T03:54:22.032Z,36.97
2023-03-11T03:56:53.051Z,10.25
2023-03-11T03:59:23.949Z,24.17
2023-03-11T04:01:57.000Z,18.70
2023-03-11T04:04:27.369Z,16.17
2023-03-11T04:07:10.153Z,10.05
2023-03-11T04:09:45.780Z,13.45
2023-03-11T04:12:30.412Z,13.18
2023-03-11T04:15:24.089Z,13.40
2023-03-11T04:17:57.313Z,9.35
2023-03-11T04:20:28.836Z,9.65
2023-03-11T04:22:59.222Z,11.23
2023-03-11T04:25:45.737Z,8.05
2023-03-11T04:28:41.570Z,11.18
2023-03-11T04:31:12.904Z,8.32
2023-03-11T04:33:42.011Z,8.18
2023-03-11T04:36:37.908Z,10.57
2023-03-11T04:39:07.982Z,8.00
2023-03-11T04:42:44.248Z,15.60
2023-03-11T04:44:50.689Z,11.25
2023-03-11T04:48:12.788Z,9.10
2023-03-11T04:51:00.167Z,6.43
2023-03-11T04:53:52.823Z,8.18
2023-03-11T04:56:32.449Z,5.57
2023-03-11T04:59:01.802Z,20.85
2023-03-11T05:05:40.106Z,13.13
2023-03-11T05:16:25.480Z,34.13
2023-03-11T05:19:28.303Z,15.75
2023-03-11T05:22:09.523Z,13.75
2023-03-11T05:24:39.588Z,44.47
2023-03-11T05:27:08.360Z,16.65
2023-03-11T05:29:41.623Z,7.65
2023-03-11T05:32:39.472Z,40.72
2023-03-11T05:35:21.668Z,12.98
2023-03-11T05:37:56.974Z,8.38
2023-03-11T05:40:30.970Z,17.63
2023-03-11T05:43:33.242Z,33.13
2023-03-11T05:46:15.661Z,24.00
2023-03-11T05:48:50.366Z,13.82
2023-03-11T05:51:52.216Z,15.38
2023-03-11T05:54:50.924Z,7.47
2023-03-11T05:57:41.865Z,27.55
2023-03-11T06:01:26.814Z,22.40
2023-03-11T06:03:19.272Z,17.85
2023-03-11T06:05:51.228Z,13.30
2023-03-11T06:08:51.142Z,14.95
2023-03-11T06:11:38.960Z,15.82
2023-03-11T06:14:55.593Z,17.73
2023-03-11T06:17:30.471Z,15.65
2023-03-11T06:20:01.162Z,25.17
2023-03-11T06:25:09.494Z,15.93
2023-03-11T06:27:42.127Z,13.75
2023-03-11T06:30:13.965Z,21.40
2023-03-11T06:33:44.333Z,24.48
2023-03-11T06:36:02.917Z,11.10
2023-03-11T06:39:01.983Z,22.15
2023-03-11T06:42:10.163Z,16.35
2023-03-11T06:44:49.970Z,14.45
2023-03-11T06:47:18.908Z,11.48
2023-03-11T06:49:48.131Z,21.33
2023-03-11T06:52:21.554Z,8.95
2023-03-11T06:54:50.336Z,13.32
2023-03-11T06:57:22.585Z,26.90
2023-03-11T06:59:53.721Z,10.05
2023-03-11T07:02:24.571Z,8.73
2023-03-11T07:04:53.694Z,12.90
2023-03-11T07:07:25.600Z,10.80
2023-03-11T07:10:04.200Z,11.05
2023-03-11T07:12:33.065Z,6.05
2023-03-11T07:15:02.298Z,7.93
2023-03-11T07:17:34.243Z,7.32
2023-03-11T07:22:50.475Z,6.70
2023-03-11T07:25:19.591Z,16.38
2023-03-11T07:27:49.772Z,10.98
2023-03-11T07:30:19.411Z,7.00
2023-03-11T07:32:48.148Z,5.80
2023-03-11T07:35:17.690Z,6.07
2023-03-11T07:37:46.173Z,9.15
2023-03-11T07:40:15.276Z,9.40
2023-03-11T07:42:43.528Z,5.32
2023-03-11T07:45:13.108Z,7.10
2023-03-11T07:47:41.613Z,7.25
2023-03-11T07:50:14.654Z,5.72
2023-03-11T08:02:40.296Z,6.00
2023-03-11T08:05:09.486Z,3.92
2023-03-11T08:07:38.321Z,6.00
2023-03-11T08:10:07.163Z,5.93
2023-03-11T08:12:36.200Z,5.90
2023-03-11T08:15:05.348Z,4.88
2023-03-11T08:17:34.387Z,6.43
2023-03-11T08:20:02.872Z,5.93
2023-03-11T08:22:31.511Z,5.63
2023-03-11T08:24:59.856Z,6.32
2023-03-11T08:27:29.668Z,6.72
2023-03-11T08:29:58.908Z,6.95
2023-03-11T08:32:38.922Z,5.72
2023-03-11T08:35:10.222Z,4.57
2023-03-11T08:37:39.407Z,7.38
2023-03-11T08:40:10.670Z,4.65
2023-03-11T08:42:39.317Z,8.50
2023-03-11T08:45:34.705Z,4.30
2023-03-11T08:48:03.492Z,7.70
2023-03-11T08:50:34.945Z,5.18
2023-03-11T08:53:10.065Z,7.93
2023-03-11T08:55:38.535Z,5.95
2023-03-11T08:58:12.716Z,5.25
2023-03-11T09:00:41.007Z,3.65
2023-03-11T09:03:11.241Z,5.55
2023-03-11T09:05:42.606Z,5.22
2023-03-11T09:08:11.646Z,4.57
2023-03-11T09:10:41.096Z,5.18
2023-03-11T09:13:10.205Z,4.57
2023-03-11T09:28:19.391Z,4.70
2023-03-11T09:31:03.187Z,7.15
2023-03-11T09:41:58.038Z,3.78
2023-03-11T09:44:45.336Z,5.75
2023-03-11T09:51:26.052Z,5.28
2023-03-11T09:54:05.373Z,4.28
2023-03-11T09:56:36.052Z,5.13
2023-03-11T09:59:40.670Z,4.97
2023-03-11T10:02:18.003Z,4.22
2023-03-11T10:04:55.873Z,3.63
2023-03-11T10:07:43.846Z,4.13
2023-03-11T10:10:18.344Z,3.05
2023-03-11T10:13:02.449Z,3.28
2023-03-11T10:16:14.193Z,4.22
2023-03-11T10:18:45.493Z,3.30
2023-03-11T10:21:55.404Z,6.22
2023-03-11T10:24:48.290Z,5.13
2023-03-11T10:27:32.951Z,4.93
2023-03-11T10:30:30.526Z,3.88
2023-03-11T10:33:21.931Z,3.92
2023-03-11T10:36:00.665Z,2.85
2023-03-11T10:38:49.027Z,3.90
2023-03-11T10:41:27.665Z,4.13
2023-03-11T10:44:04.641Z,5.20
2023-03-11T10:46:58.175Z,4.20
2023-03-11T10:49:27.619Z,5.35
2023-03-11T10:51:57.301Z,5.47
2023-03-11T10:54:38.874Z,3.72
2023-03-11T10:57:34.921Z,3.53
2023-03-11T11:00:28.959Z,3.45
2023-03-11T11:03:01.785Z,4.45
2023-03-11T11:05:33.364Z,3.20
2023-03-11T11:08:14.515Z,4.95
2023-03-11T11:11:02.078Z,5.05
2023-03-11T11:13:36.814Z,5.93
2023-03-11T11:16:46.958Z,3.00
2023-03-11T11:19:31.822Z,3.80
2023-03-11T11:22:16.483Z,4.25
2023-03-11T11:25:44.620Z,4.07
2023-03-11T11:28:53.225Z,2.65
2023-03-11T11:31:26.065Z,2.13
2023-03-11T11:33:56.829Z,2.33
2023-03-11T11:36:36.169Z,3.95
2023-03-11T11:39:16.289Z,2.85
2023-03-11T11:41:46.224Z,3.20
2023-03-11T11:44:21.646Z,5.63
2023-03-11T11:47:01.168Z,2.42
2023-03-11T11:49:33.664Z,2.78
2023-03-11T11:52:19.398Z,2.92
2023-03-11T11:54:58.581Z,3.28
2023-03-11T11:57:55.598Z,3.00
2023-03-11T12:16:07.374Z,3.53
2023-03-11T12:45:47.865Z,3.70
2023-03-11T12:48:38.860Z,3.50
2023-03-11T12:51:08.514Z,3.03
2023-03-11T12:53:46.284Z,4.20
2023-03-11T12:56:23.054Z,2.60
2023-03-11T12:59:35.368Z,3.38
2023-03-11T13:02:30.117Z,2.35
2023-03-11T13:05:28.360Z,2.70
2023-03-11T13:08:39.201Z,3.03
2023-03-11T13:11:33.143Z,2.33
2023-03-11T13:14:36.981Z,3.35
2023-03-11T13:17:32.652Z,2.70
2023-03-11T13:20:04.670Z,2.58
2023-03-11T13:22:54.173Z,3.50
2023-03-11T13:25:47.710Z,2.08
2023-03-11T13:28:33.292Z,2.28
2023-03-11T13:31:44.166Z,3.67
2023-03-11T13:34:47.021Z,1.80
2023-03-11T13:37:42.703Z,2.17
2023-03-11T13:40:42.388Z,1.27
2023-03-11T13:43:16.998Z,2.22
2023-03-11T13:46:01.824Z,1.35
2023-03-11T13:51:09.468Z,2.58
2023-03-11T13:53:45.645Z,2.03
2023-03-11T13:57:02.312Z,1.55
2023-03-11T13:59:50.943Z,2.13
2023-03-11T14:02:21.661Z,1.85
2023-03-11T14:05:03.501Z,1.95
2023-03-11T14:17:16.525Z,1.77
2023-03-11T14:20:05.189Z,1.40
2023-03-11T14:22:34.510Z,1.27
2023-03-11T14:25:09.480Z,2.13
2023-03-11T14:27:39.774Z,2.63
2023-03-11T14:30:18.433Z,2.97
2023-03-11T14:33:05.094Z,3.13
2023-03-11T14:35:35.908Z,1.73
2023-03-11T14:38:21.808Z,1.97
2023-03-11T14:41:03.337Z,1.52
2023-03-11T14:43:41.516Z,1.95
2023-03-11T14:46:24.640Z,2.38
2023-03-11T14:49:08.846Z,1.80
2023-03-11T14:52:09.096Z,2.85
2023-03-11T14:54:43.433Z,2.28
2023-03-11T14:57:40.286Z,2.40
2023-03-11T15:00:25.667Z,1.95
2023-03-11T15:03:13.253Z,2.70
2023-03-11T15:05:54.138Z,2.17
2023-03-11T15:08:34.312Z,1.98
2023-03-11T15:12:34.406Z,2.40
2023-03-11T15:14:51.372Z,2.10
2023-03-11T15:18:09.128Z,2.28
2023-03-11T15:20:36.229Z,2.25
2023-03-11T15:23:33.257Z,1.58
2023-03-11T15:26:28.816Z,1.10
2023-03-11T15:29:15.735Z,2.45
2023-03-11T15:31:46.809Z,2.38
2023-03-11T15:34:18.343Z,1.35
2023-03-11T15:36:50.427Z,1.45
2023-03-11T15:39:21.496Z,2.30
2023-03-11T15:42:06.992Z,2.60
2023-03-11T15:44:36.428Z,2.38
2023-03-11T15:47:06.174Z,2.55
2023-03-11T15:49:34.554Z,2.17
2023-03-11T15:52:03.792Z,2.08
2023-03-11T15:54:32.317Z,2.50
2023-03-11T15:57:01.655Z,2.25
2023-03-11T15:59:30.788Z,1.98
2023-03-11T16:01:59.728Z,3.10
2023-03-11T16:04:28.253Z,2.58
2023-03-11T16:07:07.497Z,3.65
2023-03-11T16:09:37.040Z,2.30
2023-03-11T16:12:18.406Z,2.72
2023-03-11T16:14:47.867Z,2.65
2023-03-11T16:17:19.189Z,2.17
2023-03-11T16:19:49.617Z,1.50
2023-03-11T16:22:38.845Z,2.40
2023-03-11T16:25:12.314Z,3.80
2023-03-11T16:27:42.278Z,2.28
2023-03-11T16:30:12.890Z,1.92
2023-03-11T16:32:42.085Z,2.65
2023-03-11T16:35:12.124Z,1.88
2023-03-11T16:37:49.116Z,2.85
2023-03-11T16:40:36.398Z,2.92
2023-03-11T16:43:13.017Z,4.10
2023-03-11T16:45:41.552Z,3.63
2023-03-11T16:48:11.564Z,4.32
2023-03-11T16:50:40.423Z,5.07
2023-03-11T16:53:10.400Z,6.55
2023-03-11T16:55:38.966Z,6.20
2023-03-11T16:58:09.757Z,6.30
2023-03-11T17:00:43.666Z,5.40
2023-03-11T17:03:43.097Z,7.03
2023-03-11T17:06:11.692Z,4.55
2023-03-11T17:08:40.553Z,4.75
2023-03-11T17:11:26.563Z,5.22
2023-03-11T17:14:03.306Z,6.10
2023-03-11T17:16:47.147Z,6.25
2023-03-11T17:19:19.089Z,6.80
2023-03-11T17:21:51.324Z,11.63
2023-03-11T17:24:20.071Z,7.93
2023-03-11T17:26:50.982Z,5.93
2023-03-11T17:29:20.455Z,7.18
2023-03-11T17:31:55.895Z,7.85
2023-03-11T17:34:27.483Z,6.47
2023-03-11T17:37:00.739Z,5.38
2023-03-11T17:39:45.852Z,4.97
2023-03-11T17:43:12.612Z,5.30
2023-03-11T17:46:02.565Z,6.90
2023-03-11T17:49:11.792Z,2.60
2023-03-11T17:57:42.843Z,5.40
2023-03-11T17:59:24.754Z,6.05
2023-03-11T18:01:55.436Z,6.95
2023-03-11T18:04:26.941Z,4.20
2023-03-11T18:06:55.756Z,1.75
2023-03-11T18:09:32.347Z,2.00
2023-03-11T18:15:56.074Z,9.27
2023-03-11T18:18:49.366Z,2.50
2023-03-11T18:22:00.683Z,2.47
2023-03-11T18:25:20.744Z,3.28
2023-03-11T18:40:48.326Z,4.10
2023-03-11T18:43:28.544Z,9.55
2023-03-11T18:46:09.315Z,7.15
2023-03-11T18:48:38.787Z,3.40
2023-03-11T18:51:08.793Z,3.58
2023-03-11T18:53:38.114Z,3.85
2023-03-11T18:56:10.250Z,4.55
2023-03-11T18:58:40.148Z,5.05
2023-03-11T19:01:12.550Z,3.72
2023-03-11T19:03:43.706Z,5.00
2023-03-11T19:06:13.593Z,4.18
2023-03-11T19:08:43.901Z,5.05
2023-03-11T19:11:15.833Z,4.68
2023-03-11T19:13:47.356Z,3.38
2023-03-11T19:16:19.529Z,5.15
2023-03-11T19:18:50.385Z,4.15
2023-03-11T19:21:19.104Z,5.07
2023-03-11T19:23:50.175Z,3.10
2023-03-11T19:26:33.796Z,5.30
2023-03-11T19:29:06.613Z,3.10
2023-03-11T19:31:35.428Z,6.00
2023-03-11T19:34:04.006Z,6.97
2023-03-11T19:36:32.761Z,5.18
2023-03-11T19:39:01.425Z,8.60
2023-03-11T19:41:29.943Z,4.30
2023-03-11T19:44:16.762Z,5.40
2023-03-11T19:46:45.615Z,5.82
2023-03-11T19:49:33.517Z,4.57
2023-03-11T19:52:28.237Z,5.13
2023-03-11T19:54:59.425Z,4.53
2023-03-11T19:57:29.899Z,4.00
2023-03-11T20:00:07.225Z,3.50
2023-03-11T20:02:49.582Z,3.45
2023-03-11T20:08:27.304Z,3.90
2023-03-11T20:11:14.670Z,3.55
2023-03-11T23:26:09.474Z,3.35
2023-03-11T23:28:41.243Z,2.97
2023-03-11T23:33:41.286Z,3.28
2023-03-11T23:36:19.680Z,3.83
2023-03-11T23:38:51.011Z,4.57
2023-03-11T23:41:21.869Z,4.50
2023-03-11T23:43:50.313Z,3.78
2023-03-11T23:46:34.589Z,4.68
2023-03-11T23:49:02.910Z,3.38
2023-03-11T23:51:31.962Z,2.78
2023-03-11T23:54:01.950Z,3.03
2023-03-11T23:56:30.601Z,3.90
2023-03-11T23:58:58.922Z,3.08
